Time;durP1;ratioP1;P1;durP2;ratioP2;P2;SDS_P1;SDS_P2;PMS_P1;PMS_P2;Temp;Humidity;BMP_temperature;BMP_pressure;BME280_temperature;BME280_humidity;BME280_pressure;Samples;Min_cycle;Max_cycle;Signal;HPM_P1;HPM_P2
2024/01/20 00:00:18;;;;;;;4.22;3.15;;;-1.80;99.90;;;-2.40;100.00;102168.59;5239986;28;20048;-45
2024/01/20 00:02:51;;;;;;;11.52;3.53;;;-1.80;99.90;;;-2.41;100.00;102170.94;5243901;28;20157;-45
2024/01/20 00:05:23;;;;;;;8.73;3.17;;;-1.80;99.90;;;-2.43;100.00;102167.34;5240744;28;20040;-46
2024/01/20 00:07:55;;;;;;;3.80;2.35;;;-1.90;99.90;;;-2.46;100.00;102168.81;5244226;28;20068;-45
2024/01/20 00:10:28;;;;;;;6.65;1.95;;;-1.90;99.90;;;-2.47;100.00;102172.13;5240509;28;20499;-46
2024/01/20 00:13:01;;;;;;;9.80;4.18;;;-1.90;99.90;;;-2.44;100.00;102166.44;5238268;28;20095;-46
2024/01/20 00:15:34;;;;;;;5.53;2.90;;;-1.90;99.90;;;-2.46;100.00;102171.38;5241121;28;20066;-47
2024/01/20 00:18:06;;;;;;;10.98;5.13;;;-1.90;99.90;;;-2.45;100.00;102164.63;5242261;28;20048;-45
2024/01/20 00:20:39;;;;;;;12.20;4.88;;;-1.90;99.90;;;-2.43;100.00;102164.78;5235722;28;20045;-46
2024/01/20 00:23:11;;;;;;;5.47;3.47;;;-1.90;99.90;;;-2.51;100.00;102159.75;5244618;28;20127;-46
2024/01/20 00:25:43;;;;;;;5.25;3.30;;;-1.90;99.90;;;-2.54;100.00;102156.88;5246179;28;20494;-46
2024/01/20 00:28:18;;;;;;;6.15;3.25;;;-1.90;99.90;;;-2.52;100.00;102165.59;5251072;28;20059;-44
2024/01/20 00:30:50;;;;;;;6.80;3.17;;;-1.90;99.90;;;-2.58;100.00;102157.28;5248307;28;20048;-46
2024/01/20 00:33:22;;;;;;;6.60;2.75;;;-2.00;99.90;;;-2.60;100.00;102163.88;5247282;28;20052;-46
2024/01/20 00:35:55;;;;;;;8.23;3.33;;;-2.00;99.90;;;-2.63;100.00;102160.97;5250466;28;20037;-46
2024/01/20 00:38:28;;;;;;;13.57;4.45;;;-2.00;99.90;;;-2.63;100.00;102163.53;5245439;28;20052;-46
2024/01/20 00:41:00;;;;;;;11.02;3.28;;;-2.00;99.90;;;-2.65;100.00;102165.03;5253055;28;20048;-45
2024/01/20 00:43:37;;;;;;;13.75;4.32;;;-2.00;99.90;;;-2.68;100.00;102169.78;5238911;28;20048;-46
2024/01/20 00:46:09;;;;;;;7.20;4.30;;;-2.10;99.90;;;-2.70;100.00;102161.06;5239499;28;20422;-46
2024/01/20 00:48:42;;;;;;;7.07;3.17;;;-2.10;99.90;;;-2.71;100.00;102163.44;5256302;28;20407;-45
2024/01/20 00:51:14;;;;;;;6.35;2.55;;;-2.10;99.90;;;-2.74;100.00;102169.09;5257218;28;20134;-45
2024/01/20 00:53:46;;;;;;;7.30;3.53;;;-2.10;99.90;;;-2.78;100.00;102166.97;5255916;28;20049;-45
2024/01/20 00:56:19;;;;;;;13.77;3.85;;;-2.10;99.90;;;-2.74;100.00;102174.22;5253492;28;20449;-46
2024/01/20 00:58:52;;;;;;;6.32;3.33;;;-2.10;99.90;;;-2.75;100.00;102162.19;5238714;28;20071;-46
2024/01/20 01:01:25;;;;;;;11.90;4.78;;;-2.10;99.90;;;-2.73;100.00;102168.41;5233867;28;20041;-46
2024/01/20 01:03:57;;;;;;;8.40;4.40;;;-2.10;99.90;;;-2.73;100.00;102165.84;5234243;28;20177;-46
2024/01/20 01:06:30;;;;;;;9.02;3.10;;;-2.10;99.90;;;-2.72;100.00;102166.75;5239790;28;20041;-45
2024/01/20 01:09:02;;;;;;;7.50;3.25;;;-2.10;99.90;;;-2.73;100.00;102160.72;5238381;28;20507;-46
2024/01/20 01:11:34;;;;;;;6.90;3.45;;;-2.10;99.90;;;-2.73;100.00;102160.72;5251251;28;20405;-45
2024/01/20 01:14:08;;;;;;;7.57;3.38;;;-2.10;99.90;;;-2.74;100.00;102164.00;5253145;28;20062;-45
2024/01/20 01:16:41;;;;;;;6.13;3.10;;;-2.20;99.90;;;-2.76;100.00;102175.69;5249921;28;20052;-46
2024/01/20 01:19:15;;;;;;;2.78;1.67;;;-2.20;99.90;;;-2.77;100.00;102173.88;5241056;28;20052;-45
2024/01/20 01:21:48;;;;;;;3.95;2.78;;;-2.20;99.90;;;-2.77;100.00;102179.00;5237963;28;20055;-45
2024/01/20 01:24:21;;;;;;;6.13;2.33;;;-2.20;99.90;;;-2.79;100.00;102180.47;5240389;28;20043;-45
2024/01/20 01:26:53;;;;;;;7.10;3.75;;;-2.30;99.90;;;-2.80;100.00;102187.22;5237294;28;20215;-46
2024/01/20 01:29:30;;;;;;;1.88;1.17;;;-2.20;99.90;;;-2.87;100.00;102176.16;5238648;28;20048;-46
2024/01/20 01:32:02;;;;;;;6.18;3.40;;;-2.30;99.90;;;-2.89;100.00;102192.97;5250654;28;20530;-46
2024/01/20 01:34:36;;;;;;;5.20;3.53;;;-2.30;99.90;;;-2.93;100.00;102191.72;5253580;28;20048;-47
2024/01/20 01:37:08;;;;;;;5.03;2.55;;;-2.30;99.90;;;-2.98;100.00;102197.06;5235085;28;20049;-46
2024/01/20 01:39:44;;;;;;;8.90;4.15;;;-2.40;99.90;;;-3.02;100.00;102206.91;5252229;28;20071;-45
2024/01/20 01:42:16;;;;;;;6.82;2.97;;;-2.40;99.90;;;-3.05;100.00;102215.88;5249862;28;20717;-46
2024/01/20 01:44:51;;;;;;;5.03;2.55;;;-2.40;99.90;;;-3.11;100.00;102213.56;5237937;28;20530;-46
2024/01/20 01:47:27;;;;;;;5.80;2.78;;;-2.50;99.90;;;-3.12;100.00;102214.28;5250110;28;20048;-45
2024/01/20 01:49:59;;;;;;;2.50;1.73;;;-2.50;99.90;;;-3.13;100.00;102222.69;5233884;28;20051;-46
2024/01/20 01:52:33;;;;;;;8.13;3.78;;;-2.50;99.90;;;-3.16;100.00;102227.44;5251545;28;20052;-45
2024/01/20 01:55:06;;;;;;;2.70;2.40;;;-2.60;99.90;;;-3.21;100.00;102225.09;5236544;28;20044;-45
2024/01/20 01:57:43;;;;;;;4.70;2.60;;;-2.60;99.90;;;-3.29;100.00;102225.16;5254531;28;20583;-45
2024/01/20 02:00:17;;;;;;;7.38;3.30;;;-2.70;99.90;;;-3.34;100.00;102220.25;5254273;28;20063;-45
2024/01/20 02:02:50;;;;;;;5.30;2.72;;;-2.70;99.90;;;-3.39;100.00;102216.28;5235125;28;20188;-46
2024/01/20 02:05:22;;;;;;;7.35;3.28;;;-2.80;99.90;;;-3.44;100.00;102223.44;5237853;28;20049;-45
2024/01/20 02:07:55;;;;;;;8.32;2.63;;;-2.80;99.90;;;-3.45;100.00;102236.03;5241788;28;20378;-45
2024/01/20 02:10:28;;;;;;;3.30;2.42;;;-2.90;99.90;;;-3.49;100.00;102223.66;5239927;28;20066;-45
2024/01/20 02:13:01;;;;;;;4.80;3.15;;;-2.90;99.90;;;-3.51;100.00;102230.22;5237778;28;20673;-45
2024/01/20 02:15:36;;;;;;;4.65;2.97;;;-2.90;99.90;;;-3.53;100.00;102229.13;5254187;28;20044;-45
2024/01/20 02:18:08;;;;;;;8.15;3.88;;;-2.90;99.90;;;-3.54;100.00;102235.88;5235035;28;20045;-46
2024/01/20 02:20:41;;;;;;;4.57;3.72;;;-2.90;99.90;;;-3.56;100.00;102233.16;5229803;28;20049;-45
2024/01/20 02:23:15;;;;;;;9.90;3.92;;;-2.90;99.90;;;-3.58;100.00;102229.53;5238446;28;20048;-46
2024/01/20 02:25:48;;;;;;;6.22;3.15;;;-3.00;99.90;;;-3.58;100.00;102220.97;5148804;28;20111;-45
2024/01/20 02:28:20;;;;;;;9.18;3.22;;;-3.00;99.90;;;-3.59;100.00;102227.72;5229406;28;20067;-46
2024/01/20 02:30:52;;;;;;;4.25;2.78;;;-3.00;99.90;;;-3.59;100.00;102222.63;5243221;28;20064;-45
2024/01/20 02:33:25;;;;;;;5.18;2.80;;;-3.00;99.90;;;-3.62;100.00;102221.34;5242317;28;20411;-45
2024/01/20 02:35:57;;;;;;;10.13;3.55;;;-3.00;99.90;;;-3.66;100.00;102220.06;5235165;28;20411;-45
2024/01/20 02:38:31;;;;;;;4.68;2.40;;;-3.00;99.90;;;-3.66;100.00;102219.19;5231982;28;20048;-46
2024/01/20 02:41:03;;;;;;;4.18;3.75;;;-3.00;99.90;;;-3.70;100.00;102217.94;5242865;28;20053;-46
2024/01/20 02:43:36;;;;;;;10.32;2.80;;;-3.10;99.90;;;-3.75;100.00;102220.69;5239784;28;20056;-46
2024/01/20 02:46:08;;;;;;;11.32;3.55;;;-3.10;99.90;;;-3.85;100.00;102221.25;5240976;28;20044;-45
2024/01/20 02:48:41;;;;;;;7.95;2.92;;;-3.20;99.90;;;-3.92;100.00;102226.41;5229205;28;20040;-46
2024/01/20 02:51:13;;;;;;;3.10;1.63;;;-3.30;99.90;;;-4.03;100.00;102216.63;5244698;28;20178;-46
2024/01/20 02:53:50;;;;;;;12.10;4.07;;;-3.40;99.90;;;-4.13;100.00;102213.00;5226409;28;20049;-45
2024/01/20 02:56:24;;;;;;;3.60;3.22;;;-3.50;99.90;;;-4.21;100.00;102217.97;5238158;28;20049;-46
2024/01/20 02:58:56;;;;;;;2.38;1.70;;;-3.60;99.90;;;-4.30;100.00;102228.00;5242019;28;20726;-45
2024/01/20 03:01:29;;;;;;;3.78;3.03;;;-3.70;99.90;;;-4.40;100.00;102226.00;5232488;28;20045;-46
2024/01/20 03:04:01;;;;;;;2.55;2.10;;;-3.70;99.90;;;-4.49;100.00;102231.69;5233440;28;20049;-46
2024/01/20 03:06:34;;;;;;;4.65;1.92;;;-3.80;99.90;;;-4.58;100.00;102222.94;5240425;28;20060;-46
2024/01/20 03:09:08;;;;;;;2.65;1.15;;;-3.90;99.90;;;-4.62;100.00;102228.44;5237685;28;20127;-45
2024/01/20 03:11:40;;;;;;;3.47;2.90;;;-4.00;99.90;;;-4.64;100.00;102230.75;5240705;28;20105;-46
2024/01/20 03:14:13;;;;;;;3.72;3.10;;;-4.00;99.90;;;-4.60;100.00;102232.03;5233976;28;20045;-46
2024/01/20 03:16:45;;;;;;;3.08;2.25;;;-4.00;99.90;;;-4.55;100.00;102234.41;5248353;28;20059;-44
2024/01/20 03:19:18;;;;;;;3.05;2.80;;;-4.00;99.90;;;-4.49;100.00;102242.75;5234738;28;20411;-46
2024/01/20 03:21:50;;;;;;;2.33;1.83;;;-3.90;99.90;;;-4.43;100.00;102250.22;5243045;28;20045;-45
2024/01/20 03:24:24;;;;;;;3.78;1.90;;;-3.80;99.90;;;-4.43;100.00;102235.84;5235875;28;20053;-45
2024/01/20 03:26:56;;;;;;;8.52;3.47;;;-3.80;99.90;;;-4.42;100.00;102241.84;5246257;28;20044;-46
2024/01/20 03:29:29;;;;;;;4.72;2.65;;;-3.80;99.90;;;-4.44;100.00;102245.81;5238505;28;20049;-45
2024/01/20 03:32:01;;;;;;;5.97;4.25;;;-3.80;99.90;;;-4.43;100.00;102245.13;5246497;28;20059;-45
2024/01/20 03:34:34;;;;;;;6.50;4.30;;;-3.80;99.90;;;-4.43;100.00;102247.66;5232305;28;20049;-46
2024/01/20 03:37:07;;;;;;;11.45;3.95;;;-3.70;99.90;;;-4.42;100.00;102246.94;5246167;28;20056;-45
2024/01/20 03:39:40;;;;;;;4.43;3.30;;;-3.80;99.90;;;-4.45;100.00;102251.66;5236255;28;20052;-46
2024/01/20 03:42:13;;;;;;;9.82;3.20;;;-3.80;99.90;;;-4.47;100.00;102259.13;5244275;28;20045;-45
2024/01/20 03:44:45;;;;;;;4.10;2.08;;;-3.80;99.90;;;-4.46;100.00;102254.94;5230984;28;20447;-45
2024/01/20 03:47:18;;;;;;;4.38;1.90;;;-3.80;99.90;;;-4.46;100.00;102252.38;5235273;28;20052;-46
2024/01/20 03:49:50;;;;;;;3.08;2.45;;;-3.80;99.90;;;-4.43;100.00;102260.41;5244335;28;20053;-45
2024/01/20 03:52:23;;;;;;;5.22;1.98;;;-3.70;99.90;;;-4.41;100.00;102259.84;5243020;28;20048;-45
2024/01/20 03:54:56;;;;;;;9.20;3.28;;;-3.70;99.90;;;-4.37;100.00;102267.13;5248608;28;20144;-46
2024/01/20 03:57:29;;;;;;;3.85;2.90;;;-3.70;99.90;;;-4.35;100.00;102266.38;5236358;28;20060;-45
2024/01/20 04:00:06;;;;;;;2.47;2.28;;;-3.70;99.90;;;-4.36;100.00;102265.47;5236108;28;20048;-46
2024/01/20 04:02:38;;;;;;;2.92;1.90;;;-3.70;99.90;;;-4.34;100.00;102261.47;5239318;28;20056;-45
2024/01/20 04:05:11;;;;;;;5.05;2.97;;;-3.70;99.90;;;-4.34;100.00;102251.28;5244663;28;20060;-46
2024/01/20 04:07:44;;;;;;;5.00;2.53;;;-3.70;99.90;;;-4.37;100.00;102267.13;5241403;28;20052;-45
2024/01/20 04:10:17;;;;;;;5.32;2.83;;;-3.70;99.90;;;-4.35;100.00;102269.84;5243656;28;20044;-46
2024/01/20 04:12:50;;;;;;;5.10;2.35;;;-3.70;99.90;;;-4.35;100.00;102267.28;5244430;28;20153;-45
2024/01/20 04:15:22;;;;;;;5.88;3.28;;;-3.70;99.90;;;-4.35;100.00;102269.84;5244947;28;21367;-45
2024/01/20 04:17:55;;;;;;;3.50;2.53;;;-3.70;99.90;;;-4.35;100.00;102264.75;5231754;28;20083;-45
2024/01/20 04:20:27;;;;;;;4.88;2.50;;;-3.70;99.90;;;-4.38;100.00;102264.38;5233570;28;20419;-45
2024/01/20 04:22:59;;;;;;;7.15;2.60;;;-3.70;99.90;;;-4.38;100.00;102274.53;5236603;28;20437;-46
2024/01/20 04:25:33;;;;;;;1.95;1.80;;;-3.70;99.90;;;-4.39;100.00;102293.09;5238869;28;20057;-46
2024/01/20 04:28:08;;;;;;;3.55;2.95;;;-3.70;99.90;;;-4.38;100.00;102287.28;5243210;28;20063;-46
2024/01/20 04:30:41;;;;;;;3.75;2.53;;;-3.70;99.90;;;-4.40;100.00;102289.66;5239442;28;20068;-45
2024/01/20 04:33:13;;;;;;;4.18;3.38;;;-3.70;99.90;;;-4.39;100.00;102291.47;5239800;28;20056;-45
2024/01/20 04:35:45;;;;;;;6.65;3.88;;;-3.70;99.90;;;-4.36;100.00;102285.84;5239494;28;20036;-46
2024/01/20 04:38:18;;;;;;;4.30;3.30;;;-3.70;99.90;;;-4.40;100.00;102284.56;5242274;28;20048;-45
2024/01/20 04:40:52;;;;;;;1.90;1.80;;;-3.70;99.90;;;-4.41;100.00;102281.84;5242678;28;20060;-45
2024/01/20 04:43:25;;;;;;;8.50;3.95;;;-3.70;99.90;;;-4.44;100.00;102284.00;5240682;28;20048;-45
2024/01/20 04:45:57;;;;;;;5.45;2.40;;;-3.70;99.90;;;-4.44;100.00;102294.19;5251006;28;20044;-45
2024/01/20 04:48:31;;;;;;;7.22;2.75;;;-3.70;99.90;;;-4.47;100.00;102296.38;5238994;28;20808;-45
2024/01/20 04:51:03;;;;;;;5.32;3.15;;;-3.80;99.90;;;-4.51;100.00;102300.19;5227385;28;20071;-46
2024/01/20 04:53:36;;;;;;;7.65;3.28;;;-3.80;99.90;;;-4.50;100.00;102298.56;5239520;28;20048;-45
2024/01/20 04:56:10;;;;;;;2.50;2.30;;;-3.80;99.90;;;-4.54;100.00;102294.75;5244766;28;20140;-45
2024/01/20 04:58:42;;;;;;;7.40;3.00;;;-3.90;99.90;;;-4.58;100.00;102286.56;5248445;28;20499;-45
2024/01/20 05:01:14;;;;;;;3.05;2.22;;;-3.90;99.90;;;-4.66;100.00;102293.31;5243954;28;20044;-45
2024/01/20 05:03:47;;;;;;;5.80;3.08;;;-4.00;99.90;;;-4.77;100.00;102286.94;5247221;28;20060;-45
2024/01/20 05:06:19;;;;;;;5.78;2.90;;;-4.10;99.90;;;-4.84;100.00;102294.56;5236879;28;20048;-45
2024/01/20 05:08:52;;;;;;;3.03;2.42;;;-4.20;99.90;;;-4.94;100.00;102297.66;5236511;28;20052;-45
2024/01/20 05:11:25;;;;;;;5.40;3.03;;;-4.20;99.90;;;-5.00;100.00;102298.56;5231619;28;20132;-45
2024/01/20 05:14:01;;;;;;;3.13;2.42;;;-4.30;99.90;;;-5.08;100.00;102307.81;5236586;28;20037;-44
2024/01/20 05:16:33;;;;;;;4.35;2.58;;;-4.40;99.90;;;-5.17;100.00;102306.69;5234613;28;20048;-48
2024/01/20 05:19:06;;;;;;;4.00;2.65;;;-4.50;99.90;;;-5.26;100.00;102306.50;5230673;28;20081;-45
2024/01/20 05:21:38;;;;;;;7.32;3.42;;;-4.50;99.90;;;-5.34;100.00;102307.19;5237795;28;20055;-45
2024/01/20 05:24:11;;;;;;;3.13;2.17;;;-4.60;99.90;;;-5.42;100.00;102306.97;5243437;28;20053;-45
2024/01/20 05:26:45;;;;;;;3.47;3.03;;;-4.70;99.90;;;-5.51;100.00;102311.84;5226260;28;20247;-45
2024/01/20 05:29:17;;;;;;;2.30;2.15;;;-4.80;99.90;;;-5.56;100.00;102312.91;5228179;28;20511;-45
2024/01/20 05:31:49;;;;;;;2.20;2.08;;;-4.80;99.90;;;-5.62;100.00;102313.06;5230038;28;20040;-45
2024/01/20 05:34:22;;;;;;;2.17;1.42;;;-4.90;99.90;;;-5.67;100.00;102323.38;5235138;28;20044;-45
2024/01/20 05:36:54;;;;;;;5.82;1.58;;;-5.00;99.90;;;-5.77;100.00;102329.88;5228673;28;20060;-45
2024/01/20 05:39:26;;;;;;;2.72;1.85;;;-5.00;99.90;;;-5.82;100.00;102332.56;5243316;28;20052;-45
2024/01/20 05:42:00;;;;;;;2.67;2.40;;;-5.10;99.90;;;-5.88;100.00;102325.09;5228477;28;20044;-45
2024/01/20 05:44:33;;;;;;;8.07;2.55;;;-5.20;99.90;;;-5.94;100.00;102332.00;5224796;28;20048;-45
2024/01/20 05:47:05;;;;;;;1.65;1.55;;;-5.20;99.90;;;-5.99;100.00;102338.16;5227438;28;20044;-46
2024/01/20 05:49:38;;;;;;;3.97;2.78;;;-5.20;99.90;;;-6.03;100.00;102341.03;5232133;28;20534;-46
2024/01/20 05:52:10;;;;;;;4.15;2.95;;;-5.30;99.90;;;-6.07;100.00;102347.31;5248405;28;20468;-46
2024/01/20 05:54:42;;;;;;;2.05;1.55;;;-5.30;99.90;;;-6.07;100.00;102349.88;5247125;28;20486;-45
2024/01/20 05:57:16;;;;;;;3.47;2.30;;;-5.40;99.90;;;-6.08;100.00;102345.50;5236988;28;20041;-45
2024/01/20 05:59:48;;;;;;;2.75;1.85;;;-5.40;99.90;;;-6.12;100.00;102345.88;5248830;28;20228;-45
2024/01/20 06:02:21;;;;;;;6.28;2.90;;;-5.40;99.90;;;-6.16;100.00;102353.81;5224085;28;20043;-45
2024/01/20 06:04:53;;;;;;;2.60;1.15;;;-5.40;99.90;;;-6.17;100.00;102352.00;5242549;28;20511;-45
2024/01/20 06:07:26;;;;;;;2.47;1.90;;;-5.50;99.90;;;-6.17;100.00;102349.44;5228570;28;20041;-45
2024/01/20 06:09:58;;;;;;;3.03;2.80;;;-5.50;99.90;;;-6.18;100.00;102345.09;5238139;28;20073;-45
2024/01/20 06:12:32;;;;;;;6.18;2.13;;;-5.50;99.90;;;-6.15;100.00;102342.03;5234317;28;20052;-45
2024/01/20 06:15:06;;;;;;;4.00;1.98;;;-5.40;99.90;;;-6.16;100.00;102348.72;5224894;28;20542;-45
2024/01/20 06:17:38;;;;;;;2.95;1.45;;;-5.50;99.90;;;-6.17;100.00;102346.91;5227787;28;20045;-45
2024/01/20 06:20:11;;;;;;;3.50;2.65;;;-5.50;99.90;;;-6.20;100.00;102340.53;5243791;28;20385;-45
2024/01/20 06:22:44;;;;;;;3.92;2.25;;;-5.50;99.90;;;-6.24;100.00;102348.50;5233571;28;20049;-45
2024/01/20 06:25:16;;;;;;;5.07;1.92;;;-5.50;99.90;;;-6.29;100.00;102350.44;5239165;28;20060;-45
2024/01/20 06:27:50;;;;;;;1.17;1.17;;;-5.50;99.90;;;-6.34;100.00;102352.41;5242684;28;20049;-45
2024/01/20 06:30:22;;;;;;;2.63;1.75;;;-5.60;99.90;;;-6.37;100.00;102349.50;5228419;28;20045;-45
2024/01/20 06:32:55;;;;;;;5.75;1.20;;;-5.60;99.90;;;-6.41;100.00;102347.28;5245052;28;20057;-46
2024/01/20 06:35:27;;;;;;;4.88;2.05;;;-5.70;99.90;;;-6.47;100.00;102359.19;5235219;28;20098;-45
2024/01/20 06:38:00;;;;;;;2.55;1.90;;;-5.70;99.90;;;-6.50;100.00;102360.44;5232282;28;20045;-45
2024/01/20 06:40:32;;;;;;;5.00;2.55;;;-5.80;99.90;;;-6.52;100.00;102364.38;5252005;28;20052;-45
2024/01/20 06:43:06;;;;;;;2.88;1.90;;;-5.80;99.90;;;-6.44;100.00;102364.66;5245612;28;20056;-46
2024/01/20 06:45:38;;;;;;;4.72;2.38;;;-5.70;99.90;;;-6.40;100.00;102371.94;5234062;28;20531;-45
2024/01/20 06:48:11;;;;;;;2.60;1.45;;;-5.70;99.90;;;-6.40;100.00;102371.94;5243556;28;20465;-45
2024/01/20 06:50:44;;;;;;;1.60;1.50;;;-5.70;99.90;;;-6.37;100.00;102376.50;5230382;28;20411;-44
2024/01/20 06:53:16;;;;;;;2.83;1.58;;;-5.70;99.90;;;-6.32;100.00;102383.06;5254313;28;20052;-45
2024/01/20 06:55:49;;;;;;;4.28;2.03;;;-5.60;99.90;;;-6.30;100.00;102385.06;5247488;28;20049;-47
2024/01/20 06:58:24;;;;;;;3.45;1.58;;;-5.60;99.90;;;-6.29;100.00;102376.75;5250045;28;20044;-45
2024/01/20 07:00:56;;;;;;;1.95;1.73;;;-5.60;99.90;;;-6.33;100.00;102391.38;5229100;28;20052;-45
2024/01/20 07:03:30;;;;;;;11.93;2.78;;;-5.60;99.90;;;-6.44;100.00;102386.59;5240469;28;20425;-45
2024/01/20 07:06:07;;;;;;;4.50;2.60;;;-5.70;99.90;;;-6.52;100.00;102385.63;5232697;28;20119;-45
2024/01/20 07:08:39;;;;;;;2.28;1.60;;;-5.80;99.90;;;-6.53;100.00;102383.78;5242212;28;20051;-45
2024/01/20 07:11:12;;;;;;;5.03;3.03;;;-5.80;99.90;;;-6.48;100.00;102386.91;5254737;28;20056;-45
2024/01/20 07:13:45;;;;;;;3.53;2.85;;;-5.70;99.90;;;-6.43;100.00;102381.69;5231463;28;20053;-46
2024/01/20 07:16:22;;;;;;;1.98;1.63;;;-5.70;99.90;;;-6.40;100.00;102384.63;5248420;28;20041;-45
2024/01/20 07:18:54;;;;;;;7.18;2.35;;;-5.70;99.90;;;-6.40;100.00;102387.16;5244399;28;20073;-45
2024/01/20 07:21:26;;;;;;;2.00;1.85;;;-5.70;99.90;;;-6.37;100.00;102391.72;5241848;28;20060;-45
2024/01/20 07:23:59;;;;;;;4.13;2.33;;;-5.70;99.90;;;-6.39;100.00;102391.53;5241047;28;20041;-45
2024/01/20 07:26:31;;;;;;;2.92;1.42;;;-5.70;99.90;;;-6.39;100.00;102394.06;5239633;28;20057;-45
2024/01/20 07:29:05;;;;;;;1.95;1.52;;;-5.70;99.90;;;-6.36;100.00;102401.16;5178317;28;20056;-46
2024/01/20 07:31:37;;;;;;;6.53;3.38;;;-5.70;99.90;;;-6.39;100.00;102416.91;5239659;28;20090;-45
2024/01/20 07:34:13;;;;;;;3.30;2.20;;;-5.70;99.90;;;-6.42;100.00;102419.03;5247809;28;20060;-45
2024/01/20 07:36:45;;;;;;;1.17;1.17;;;-5.70;99.90;;;-6.43;100.00;102417.22;5244990;28;20512;-45
2024/01/20 07:39:18;;;;;;;2.75;2.35;;;-5.70;99.90;;;-6.44;100.00;102417.94;5231620;28;20055;-45
2024/01/20 07:41:50;;;;;;;6.53;3.75;;;-5.70;99.90;;;-6.36;100.00;102424.91;5250295;28;20055;-44
2024/01/20 07:44:24;;;;;;;3.97;2.55;;;-5.70;99.90;;;-6.30;100.00;102427.31;5240404;28;20053;-45
2024/01/20 07:46:56;;;;;;;6.45;2.53;;;-5.60;99.90;;;-6.30;100.00;102433.28;5240882;28;20067;-45
2024/01/20 07:49:29;;;;;;;5.97;3.28;;;-5.60;99.90;;;-6.32;100.00;102439.81;5246843;28;20045;-46
2024/01/20 07:52:01;;;;;;;1.75;1.58;;;-5.60;99.90;;;-6.36;100.00;102440.13;5237927;28;20061;-45
2024/01/20 07:54:33;;;;;;;2.92;1.50;;;-5.60;99.90;;;-6.42;100.00;102435.91;5244651;28;20530;-45
2024/01/20 07:57:06;;;;;;;3.78;1.95;;;-5.70;99.90;;;-6.45;100.00;102444.03;5238963;28;20106;-45
2024/01/20 07:59:40;;;;;;;7.28;2.53;;;-5.70;99.90;;;-6.48;100.00;102448.72;5230631;28;20048;-45
2024/01/20 08:02:15;;;;;;;2.00;1.83;;;-5.70;99.90;;;-6.49;100.00;102443.44;5238771;28;20371;-45
2024/01/20 08:04:47;;;;;;;1.90;1.77;;;-5.70;99.90;;;-6.44;100.00;102450.03;5246813;28;20063;-45
2024/01/20 08:07:20;;;;;;;12.68;3.50;;;-5.70;99.90;;;-6.37;100.00;102453.53;5230341;28;20080;-45
2024/01/20 08:09:53;;;;;;;1.38;1.33;;;-5.70;99.90;;;-5.96;100.00;102457.88;5248068;28;20431;-45
2024/01/20 08:12:26;;;;;;;2.67;2.47;;;-5.40;99.90;;;-5.59;100.00;102449.78;5232572;28;20473;-44
2024/01/20 08:14:59;;;;;;;2.58;2.38;;;-5.10;99.90;;;-5.47;100.00;102451.31;5240904;28;20045;-44
2024/01/20 08:17:32;;;;;;;10.25;4.55;;;-4.90;99.90;;;-5.41;100.00;102456.22;5239090;28;20041;-45
2024/01/20 08:20:05;;;;;;;6.13;2.55;;;-4.80;99.90;;;-5.41;100.00;102459.69;5239195;28;20045;-44
2024/01/20 08:22:38;;;;;;;2.85;2.55;;;-4.70;99.90;;;-5.41;100.00;102464.78;5238935;28;20044;-45
2024/01/20 08:25:10;;;;;;;3.05;2.35;;;-4.70;99.90;;;-5.40;100.00;102464.06;5231598;28;20522;-46
2024/01/20 08:27:43;;;;;;;2.97;2.25;;;-4.70;99.90;;;-5.37;100.00;102458.41;5236738;28;20041;-46
2024/01/20 08:30:17;;;;;;;9.90;3.05;;;-4.70;99.90;;;-5.32;100.00;102465.91;5233439;28;20511;-44
2024/01/20 08:32:49;;;;;;;3.00;1.95;;;-4.60;99.90;;;-5.26;100.00;102473.38;5237071;28;20049;-45
2024/01/20 08:35:21;;;;;;;2.33;1.92;;;-4.60;99.90;;;-5.22;100.00;102479.03;5229886;28;20056;-45
2024/01/20 08:37:54;;;;;;;5.00;2.10;;;-4.60;99.90;;;-5.18;100.00;102486.31;5253573;28;20037;-45
2024/01/20 08:40:29;;;;;;;4.88;2.75;;;-4.50;99.90;;;-5.15;100.00;102488.34;5235941;28;20048;-45
2024/01/20 08:43:01;;;;;;;2.53;1.90;;;-4.50;99.90;;;-5.05;100.00;102481.09;5247624;28;20060;-44
2024/01/20 08:45:35;;;;;;;4.00;2.55;;;-4.40;99.90;;;-4.92;100.00;102486.06;5239869;28;20049;-45
2024/01/20 08:48:08;;;;;;;4.20;2.40;;;-4.30;99.90;;;-4.80;100.00;102476.50;5245917;28;20097;-44
2024/01/20 08:50:40;;;;;;;5.15;3.78;;;-4.20;99.90;;;-4.69;100.00;102481.28;5236273;28;20060;-45
2024/01/20 08:53:13;;;;;;;4.63;1.80;;;-4.00;99.90;;;-4.60;100.00;102469.66;5233281;28;20049;-45
2024/01/20 08:55:45;;;;;;;1.98;1.25;;;-4.00;99.90;;;-4.49;100.00;102474.41;5233191;28;20048;-45
2024/01/20 08:58:20;;;;;;;5.97;3.35;;;-3.80;99.90;;;-4.38;100.00;102475.69;5238562;28;20048;-44
2024/01/20 09:00:55;;;;;;;2.03;1.92;;;-3.70;99.90;;;-4.30;100.00;102475.00;5242336;28;20144;-45
2024/01/20 09:03:27;;;;;;;7.07;3.38;;;-3.70;99.90;;;-4.23;100.00;102485.19;5239878;28;20129;-44
2024/01/20 09:06:00;;;;;;;8.48;3.72;;;-3.60;99.90;;;-4.15;100.00;102476.81;5242239;28;20048;-45
2024/01/20 09:08:32;;;;;;;5.63;2.83;;;-3.50;99.90;;;-4.07;100.00;102474.28;5233401;28;20052;-45
2024/01/20 09:11:05;;;;;;;2.97;2.72;;;-3.40;99.90;;;-3.99;100.00;102471.00;5235562;28;20063;-44
2024/01/20 09:13:37;;;;;;;2.83;2.58;;;-3.30;99.90;;;-3.89;100.00;102473.91;5238557;28;20064;-46
2024/01/20 09:16:11;;;;;;;7.35;3.13;;;-3.20;99.90;;;-3.77;100.00;102477.03;5235743;28;20045;-47
2024/01/20 09:18:43;;;;;;;4.07;2.28;;;-3.10;99.90;;;-3.67;100.00;102488.47;5234325;28;20064;-44
2024/01/20 09:21:15;;;;;;;5.15;2.58;;;-3.00;99.90;;;-3.58;100.00;102487.00;5241096;28;20059;-45
2024/01/20 09:23:48;;;;;;;2.63;2.35;;;-3.00;99.90;;;-3.52;100.00;102488.44;5226334;28;20056;-44
2024/01/20 09:26:20;;;;;;;5.30;2.90;;;-2.90;99.90;;;-3.46;100.00;102491.69;5227344;28;20103;-45
2024/01/20 09:28:52;;;;;;;5.18;2.80;;;-2.80;99.90;;;-3.37;100.00;102490.25;5232661;28;20529;-45
2024/01/20 09:31:26;;;;;;;6.25;2.13;;;-2.80;99.90;;;-3.27;100.00;102491.47;5237342;28;20045;-45
2024/01/20 09:33:59;;;;;;;8.80;2.90;;;-2.70;99.90;;;-3.14;100.00;102491.25;5242494;28;20049;-45
2024/01/20 09:36:31;;;;;;;6.95;3.53;;;-2.60;99.90;;;-2.97;100.00;102499.97;5251639;28;20090;-45
2024/01/20 09:39:04;;;;;;;4.30;2.83;;;-2.40;99.90;;;-2.78;100.00;102496.25;5229294;28;20041;-45
2024/01/20 09:41:36;;;;;;;5.70;2.72;;;-2.30;99.90;;;-2.67;100.00;102494.91;5240580;28;20126;-45
2024/01/20 09:44:11;;;;;;;6.03;2.90;;;-2.20;99.90;;;-2.50;100.00;102498.66;5226646;28;20044;-45
2024/01/20 09:46:45;;;;;;;4.40;2.38;;;-2.00;99.90;;;-2.27;100.00;102497.81;5235339;28;20060;-45
2024/01/20 09:49:17;;;;;;;3.03;1.67;;;-1.90;99.90;;;-2.01;100.00;102498.19;5237847;28;20419;-45
2024/01/20 09:51:53;;;;;;;11.15;4.13;;;-1.60;99.90;;;-1.86;100.00;102498.97;5238940;28;20045;-46
2024/01/20 09:54:26;;;;;;;6.25;3.67;;;-1.50;99.90;;;-1.80;100.00;102509.88;5223845;28;20052;-45
2024/01/20 09:56:59;;;;;;;7.85;3.00;;;-1.30;99.90;;;-1.66;100.00;102509.75;5237205;28;20045;-45
2024/01/20 09:59:33;;;;;;;5.22;2.75;;;-1.20;99.90;;;-1.54;100.00;102508.56;5224538;28;20048;-45
2024/01/20 10:02:08;;;;;;;4.40;3.45;;;-1.10;99.90;;;-1.42;100.00;102501.31;5228545;28;20057;-45
2024/01/20 10:04:43;;;;;;;5.15;3.35;;;-1.00;99.90;;;-1.27;100.00;102508.09;5231518;28;20052;-45
2024/01/20 10:07:28;;;;;;;9.63;3.42;;;-0.80;99.90;;;-1.11;100.00;102502.97;5239790;28;20553;-45
2024/01/20 10:10:00;;;;;;;2.92;2.08;;;-0.70;99.90;;;-0.99;100.00;102508.53;5227198;28;20475;-45
2024/01/20 10:12:32;;;;;;;4.22;3.15;;;-0.60;99.90;;;-0.84;100.00;102503.41;5236900;28;20055;-45
2024/01/20 10:15:06;;;;;;;8.80;3.35;;;-0.40;99.90;;;-0.69;100.00;102508.34;5239383;28;20048;-44
2024/01/20 10:17:40;;;;;;;3.95;2.40;;;-0.30;99.90;;;-0.60;100.00;102517.00;5237397;28;20048;-44
2024/01/20 10:20:20;;;;;;;8.30;2.95;;;-0.20;99.90;;;-0.48;100.00;102514.84;5234036;28;20049;-45
2024/01/20 10:22:53;;;;;;;5.30;3.17;;;-0.10;99.90;;;-0.39;100.00;102511.63;5230603;28;20045;-45
2024/01/20 10:25:26;;;;;;;6.25;3.65;;;0.00;99.90;;;-0.30;100.00;102503.97;5242923;28;20565;-46
2024/01/20 10:27:58;;;;;;;13.45;3.40;;;0.10;99.90;;;-0.20;100.00;102498.16;5241455;28;20067;-46